Gettysburg, SD (57442)

3:29 AM CST on November 24, 2014 (GMT -0600)
KSDHOVEN2 | Change Station
CLOSE
Current Station
Personal Weather Station
Location: Hoven, SD
Elevation: 1877 ft
Nearby Weather Stations

Elev 1877 ft 45.24 °N, 99.78 °W | Updated 8 minutes ago

Overcast
Overcast
18.1 °F
Feels Like 5 °F
N
12.8
Wind Variable Wind from North
Gusts 19.2 mph

Today
High -- | Low -- °F
--% Chance of Precip.
Yesterday
High -- | Low -- °F
Precip. -- in
7:49 AM 5:03 PM
Waxing Crescent, 4% visible
Pressure 29.74 in
Visibility 10.0 miles
Clouds Overcast 1400 ft
Windchill 5 °F
Dew Point 7 °F
Humidity 60%
Rainfall 0.00 in
Snow Depth Not available.
UV 0 out of 12
Pollen .10 out of 12
Air Quality Not available.
Flu Activity Not available.
METAR KMBG 240852Z AUTO 32024G30KT 10SM OVC014 M07/M10 A2967 RMK AO2 PK WND 33030/0846 SLP069 T10671100 53008

More Conditions Fewer Conditions

Pressure 29.74 in
Visibility 10.0 miles
Clouds Overcast 1400 ft
Windchill 5 °F
Dew Point 7 °F
Humidity 60%
Rainfall 0.00 in
Snow Depth Not available.
UV 0 out of 12
Pollen .10 out of 12
Air Quality Not available.
Flu Activity Not available.
METAR KMBG 240852Z AUTO 32024G30KT 10SM OVC014 M07/M10 A2967 RMK AO2 PK WND 33030/0846 SLP069 T10671100 53008

More Conditions Fewer Conditions

10-Day Weather Forecast

Almanac

Astronomy

Nov. 24, 2014 Rise Set
Actual Time
Civil Twilight
Nautical Twilight
Astronomical Twilight
Moon
Length of Visible Light
Length of Day
Tomorrow will be .
, % of the Moon is Illuminated

Today's Extremes

State Highs State Lows

Community

WunderPhotos

Upload Photos

1,773,294 photos uploaded!

WunderBlogs® & News

Nearby

Air Quality

  Air Quality AQ Index Pollutant
Not available.

Snow Depth

Station Depth Elevation

Earthquake Activity

City Distance Mag. Time & Date
Minimum magnitude displayed is 2.5.

Coastal Water Temperatures

Place Temperature

Nearby Weather Stations